Terminal Aerodrome Forecast
Issued by NWS

Current Version | Previous Version | Text Only | Print | Product List | Glossary On
Versions: 1 2 3 4 5 6 7 8 9 10 11 12 13 14 15
000
FTAK31 PAJN 282340
TAFAGY
TAF
PAGY 282340Z 2900/2924 21020G30KT P6SM VCSH SCT025 BKN070
     FM290400 21012G20KT P6SM VCSH SCT025 BKN070
     FM290900 VRB03KT P6SM BKN080
     FM291600 VRB06KT P6SM SCT090
     FM292000 21009KT P6SM FEW090
      AMD LTD TO CLD VIS AND WIND=

USA.gov is the U.S. government's official web portal to all federal, state and local government web resources and services.